sensor_id;sensor_type;location;lat;lon;timestamp;pressure;altitude;pressure_sealevel;temperature;humidity
9839;BME280;4958;48.150;11.506;2023-04-26T00:00:21;95532.97;;;9.30;82.71
9839;BME280;4958;48.150;11.506;2023-04-26T00:03:49;95529.59;;;9.30;82.21
9839;BME280;4958;48.150;11.506;2023-04-26T00:06:21;95520.78;;;9.24;82.27
9839;BME280;4958;48.150;11.506;2023-04-26T00:09:02;95513.38;;;9.29;82.34
9839;BME280;4958;48.150;11.506;2023-04-26T00:11:55;95513.38;;;9.29;82.27
9839;BME280;4958;48.150;11.506;2023-04-26T00:14:29;95519.66;;;9.27;82.26
9839;BME280;4958;48.150;11.506;2023-04-26T00:17:05;95525.88;;;9.32;82.11
9839;BME280;4958;48.150;11.506;2023-04-26T00:20:10;95521.41;;;9.26;82.56
9839;BME280;4958;48.150;11.506;2023-04-26T00:23:09;95524.16;;;9.25;82.46
9839;BME280;4958;48.150;11.506;2023-04-26T00:28:53;95519.81;;;9.25;83.30
9839;BME280;4958;48.150;11.506;2023-04-26T00:31:22;95517.06;;;9.27;82.55
9839;BME280;4958;48.150;11.506;2023-04-26T00:33:50;95515.94;;;9.29;82.33
9839;BME280;4958;48.150;11.506;2023-04-26T00:36:41;95521.59;;;9.25;83.55
9839;BME280;4958;48.150;11.506;2023-04-26T00:42:16;95524.94;;;9.25;82.26
9839;BME280;4958;48.150;11.506;2023-04-26T00:45:05;95514.69;;;9.25;81.74
9839;BME280;4958;48.150;11.506;2023-04-26T00:47:49;95514.69;;;9.25;81.61
9839;BME280;4958;48.150;11.506;2023-04-26T00:53:13;95521.59;;;9.25;79.88
9839;BME280;4958;48.150;11.506;2023-04-26T00:55:50;95515.84;;;9.23;79.74
9839;BME280;4958;48.150;11.506;2023-04-26T00:58:21;95515.53;;;9.18;79.44
9839;BME280;4958;48.150;11.506;2023-04-26T01:00:54;95525.00;;;9.17;79.67
9839;BME280;4958;48.150;11.506;2023-04-26T01:03:23;95515.06;;;9.14;79.75
9839;BME280;4958;48.150;11.506;2023-04-26T01:06:01;95525.00;;;9.17;79.41
9839;BME280;4958;48.150;11.506;2023-04-26T01:08:37;95528.72;;;9.15;80.20
9839;BME280;4958;48.150;11.506;2023-04-26T01:11:13;95526.78;;;9.17;80.64
9839;BME280;4958;48.150;11.506;2023-04-26T01:13:45;95525.81;;;9.18;80.31
9839;BME280;4958;48.150;11.506;2023-04-26T01:16:15;95527.75;;;9.16;80.53
9839;BME280;4958;48.150;11.506;2023-04-26T01:18:52;95524.56;;;9.14;80.44
9839;BME280;4958;48.150;11.506;2023-04-26T01:21:24;95532.41;;;9.12;79.43
9839;BME280;4958;48.150;11.506;2023-04-26T01:24:12;95529.13;;;9.04;80.54
9839;BME280;4958;48.150;11.506;2023-04-26T01:26:50;95533.09;;;9.06;80.34
9839;BME280;4958;48.150;11.506;2023-04-26T01:32:38;95538.28;;;8.98;81.33
9839;BME280;4958;48.150;11.506;2023-04-26T01:37:59;95533.13;;;8.98;81.51
9839;BME280;4958;48.150;11.506;2023-04-26T01:40:32;95536.38;;;8.92;82.44
9839;BME280;4958;48.150;11.506;2023-04-26T01:43:03;95527.59;;;8.78;83.19
9839;BME280;4958;48.150;11.506;2023-04-26T01:45:39;95532.91;;;8.77;83.94
9839;BME280;4958;48.150;11.506;2023-04-26T01:48:14;95543.03;;;8.70;84.01
9839;BME280;4958;48.150;11.506;2023-04-26T01:50:56;95535.81;;;8.74;83.75
9839;BME280;4958;48.150;11.506;2023-04-26T01:53:39;95544.31;;;8.74;82.96
9839;BME280;4958;48.150;11.506;2023-04-26T01:56:17;95544.31;;;8.66;82.75
9839;BME280;4958;48.150;11.506;2023-04-26T01:59:26;95544.50;;;8.64;82.69
9839;BME280;4958;48.150;11.506;2023-04-26T02:01:37;95545.97;;;8.59;82.52
9839;BME280;4958;48.150;11.506;2023-04-26T02:04:19;95551.59;;;8.54;82.76
9839;BME280;4958;48.150;11.506;2023-04-26T02:06:59;95551.91;;;8.59;82.00
9839;BME280;4958;48.150;11.506;2023-04-26T02:09:48;95555.91;;;8.62;81.30
9839;BME280;4958;48.150;11.506;2023-04-26T02:12:31;95551.25;;;8.65;81.39
9839;BME280;4958;48.150;11.506;2023-04-26T02:15:07;95543.06;;;8.62;81.51
9839;BME280;4958;48.150;11.506;2023-04-26T02:17:33;95538.91;;;8.61;81.09
9839;BME280;4958;48.150;11.506;2023-04-26T02:20:13;95541.31;;;8.54;80.26
9839;BME280;4958;48.150;11.506;2023-04-26T02:22:47;95547.25;;;8.55;80.33
9839;BME280;4958;48.150;11.506;2023-04-26T02:25:28;95536.03;;;8.56;80.26
9839;BME280;4958;48.150;11.506;2023-04-26T02:28:24;95535.38;;;8.62;79.66
9839;BME280;4958;48.150;11.506;2023-04-26T02:31:17;95532.34;;;8.58;79.96
9839;BME280;4958;48.150;11.506;2023-04-26T02:33:54;95542.75;;;8.49;80.03
9839;BME280;4958;48.150;11.506;2023-04-26T02:36:43;95541.03;;;8.41;80.23
9839;BME280;4958;48.150;11.506;2023-04-26T02:39:31;95545.69;;;8.46;80.51
9839;BME280;4958;48.150;11.506;2023-04-26T02:42:37;95540.19;;;8.49;80.96
9839;BME280;4958;48.150;11.506;2023-04-26T02:45:26;95542.47;;;8.44;80.59
9839;BME280;4958;48.150;11.506;2023-04-26T02:47:55;95537.19;;;8.37;79.64
9839;BME280;4958;48.150;11.506;2023-04-26T02:50:32;95540.56;;;8.38;79.88
9839;BME280;4958;48.150;11.506;2023-04-26T02:52:58;95546.00;;;8.43;80.40
9839;BME280;4958;48.150;11.506;2023-04-26T02:55:35;95543.28;;;8.44;79.80
9839;BME280;4958;48.150;11.506;2023-04-26T03:01:01;95534.94;;;8.34;79.14
9839;BME280;4958;48.150;11.506;2023-04-26T03:04:00;95540.25;;;8.41;79.43
9839;BME280;4958;48.150;11.506;2023-04-26T03:06:45;95533.03;;;8.36;79.08
9839;BME280;4958;48.150;11.506;2023-04-26T03:09:28;95538.00;;;8.38;79.21
9839;BME280;4958;48.150;11.506;2023-04-26T03:12:06;95540.72;;;8.36;79.32
9839;BME280;4958;48.150;11.506;2023-04-26T03:14:41;95547.63;;;8.36;79.19
9839;BME280;4958;48.150;11.506;2023-04-26T03:17:13;95546.50;;;8.38;79.53
9839;BME280;4958;48.150;11.506;2023-04-26T03:19:44;95548.72;;;8.41;79.22
9839;BME280;4958;48.150;11.506;2023-04-26T03:22:18;95543.91;;;8.46;79.15
9839;BME280;4958;48.150;11.506;2023-04-26T03:25:17;95537.19;;;8.45;79.27
9839;BME280;4958;48.150;11.506;2023-04-26T03:30:52;95548.25;;;8.38;79.51
9839;BME280;4958;48.150;11.506;2023-04-26T03:33:33;95547.44;;;8.37;79.16
9839;BME280;4958;48.150;11.506;2023-04-26T03:36:05;95543.09;;;8.29;79.68
9839;BME280;4958;48.150;11.506;2023-04-26T03:38:43;95547.94;;;8.32;79.52
9839;BME280;4958;48.150;11.506;2023-04-26T03:41:15;95547.28;;;8.39;79.28
9839;BME280;4958;48.150;11.506;2023-04-26T03:43:47;95551.31;;;8.41;79.14
9839;BME280;4958;48.150;11.506;2023-04-26T03:46:20;95548.41;;;8.44;79.42
9839;BME280;4958;48.150;11.506;2023-04-26T03:48:50;95549.53;;;8.42;79.56
9839;BME280;4958;48.150;11.506;2023-04-26T03:51:27;95556.44;;;8.41;79.62
9839;BME280;4958;48.150;11.506;2023-04-26T03:54:01;95550.03;;;8.37;79.82
9839;BME280;4958;48.150;11.506;2023-04-26T03:56:35;95553.50;;;8.28;79.61
9839;BME280;4958;48.150;11.506;2023-04-26T03:59:13;95560.41;;;8.27;80.26
9839;BME280;4958;48.150;11.506;2023-04-26T04:02:19;95557.41;;;8.24;79.82
9839;BME280;4958;48.150;11.506;2023-04-26T04:05:09;95558.50;;;8.21;79.79
9839;BME280;4958;48.150;11.506;2023-04-26T04:07:55;95557.41;;;8.24;80.47
9839;BME280;4958;48.150;11.506;2023-04-26T04:10:28;95556.44;;;8.09;80.40
9839;BME280;4958;48.150;11.506;2023-04-26T04:12:55;95556.91;;;8.12;80.94
9839;BME280;4958;48.150;11.506;2023-04-26T04:15:31;95558.03;;;8.18;80.72
9839;BME280;4958;48.150;11.506;2023-04-26T04:18:20;95556.91;;;8.20;80.63
9839;BME280;4958;48.150;11.506;2023-04-26T04:23:48;95563.78;;;8.28;80.38
9839;BME280;4958;48.150;11.506;2023-04-26T04:26:44;95560.09;;;8.30;80.25
9839;BME280;4958;48.150;11.506;2023-04-26T04:29:28;95569.38;;;8.31;79.84
9839;BME280;4958;48.150;11.506;2023-04-26T04:32:22;95571.66;;;8.35;80.09
9839;BME280;4958;48.150;11.506;2023-04-26T04:35:04;95585.13;;;8.37;80.02
9839;BME280;4958;48.150;11.506;2023-04-26T04:37:45;95582.72;;;8.35;80.53
9839;BME280;4958;48.150;11.506;2023-04-26T04:40:18;95582.88;;;8.34;79.77
9839;BME280;4958;48.150;11.506;2023-04-26T04:45:50;95590.91;;;8.39;80.66
9839;BME280;4958;48.150;11.506;2023-04-26T04:48:42;95591.72;;;8.39;80.49
9839;BME280;4958;48.150;11.506;2023-04-26T04:51:53;95591.53;;;8.41;80.50
9839;BME280;4958;48.150;11.506;2023-04-26T04:54:39;95594.75;;;8.35;80.23
9839;BME280;4958;48.150;11.506;2023-04-26T04:58:17;95591.38;;;8.42;79.84
9839;BME280;4958;48.150;11.506;2023-04-26T05:00:26;95600.22;;;8.40;80.24
9839;BME280;4958;48.150;11.506;2023-04-26T05:03:33;95598.13;;;8.35;82.36
9839;BME280;4958;48.150;11.506;2023-04-26T05:06:25;95610.31;;;8.41;81.61
9839;BME280;4958;48.150;11.506;2023-04-26T05:09:36;95618.00;;;8.41;81.98
9839;BME280;4958;48.150;11.506;2023-04-26T05:12:13;95612.06;;;8.41;82.03
9839;BME280;4958;48.150;11.506;2023-04-26T05:14:42;95615.44;;;8.41;84.03
9839;BME280;4958;48.150;11.506;2023-04-26T05:17:32;95614.16;;;8.37;82.68
9839;BME280;4958;48.150;11.506;2023-04-26T05:20:25;95620.25;;;8.44;81.99
9839;BME280;4958;48.150;11.506;2023-04-26T05:23:08;95617.97;;;8.49;82.01
9839;BME280;4958;48.150;11.506;2023-04-26T05:26:13;95616.25;;;8.42;82.44
9839;BME280;4958;48.150;11.506;2023-04-26T05:34:51;95616.38;;;8.48;79.18
9839;BME280;4958;48.150;11.506;2023-04-26T05:37:42;95623.63;;;8.45;79.15
9839;BME280;4958;48.150;11.506;2023-04-26T05:40:14;95622.50;;;8.39;79.42
9839;BME280;4958;48.150;11.506;2023-04-26T05:53:13;95624.06;;;8.64;80.21
9839;BME280;4958;48.150;11.506;2023-04-26T05:55:56;95625.81;;;8.72;80.82
9839;BME280;4958;48.150;11.506;2023-04-26T05:58:25;95626.59;;;8.81;79.73
9839;BME280;4958;48.150;11.506;2023-04-26T06:00:55;95630.78;;;8.82;80.49
9839;BME280;4958;48.150;11.506;2023-04-26T06:03:21;95629.34;;;8.71;79.35
9839;BME280;4958;48.150;11.506;2023-04-26T06:06:18;95635.63;;;8.60;79.84
9839;BME280;4958;48.150;11.506;2023-04-26T06:12:45;95643.47;;;8.59;79.89
9839;BME280;4958;48.150;11.506;2023-04-26T06:18:43;95652.75;;;8.68;78.83
9839;BME280;4958;48.150;11.506;2023-04-26T06:21:30;95645.41;;;8.65;78.44
9839;BME280;4958;48.150;11.506;2023-04-26T06:37:59;95642.38;;;9.09;77.15
9839;BME280;4958;48.150;11.506;2023-04-26T06:44:58;95640.53;;;9.33;76.67
9839;BME280;4958;48.150;11.506;2023-04-26T06:47:29;95647.69;;;9.46;74.24
9839;BME280;4958;48.150;11.506;2023-04-26T06:50:49;95649.94;;;9.49;72.74
9839;BME280;4958;48.150;11.506;2023-04-26T06:53:31;95651.22;;;9.45;72.37
9839;BME280;4958;48.150;11.506;2023-04-26T06:56:27;95652.69;;;9.48;73.64
9839;BME280;4958;48.150;11.506;2023-04-26T06:59:11;95654.88;;;9.59;73.90
9839;BME280;4958;48.150;11.506;2023-04-26T07:36:25;95645.78;;;9.79;70.88
9839;BME280;4958;48.150;11.506;2023-04-26T07:42:07;95643.13;;;9.87;70.43
9839;BME280;4958;48.150;11.506;2023-04-26T07:43:01;95645.38;;;9.90;72.64
9839;BME280;4958;48.150;11.506;2023-04-26T08:00:03;95651.78;;;9.63;64.53
9839;BME280;4958;48.150;11.506;2023-04-26T08:03:02;95649.53;;;9.68;65.96
9839;BME280;4958;48.150;11.506;2023-04-26T08:05:55;95648.84;;;9.75;65.32
9839;BME280;4958;48.150;11.506;2023-04-26T08:08:59;95646.59;;;9.80;67.61
9839;BME280;4958;48.150;11.506;2023-04-26T08:12:16;95652.63;;;9.87;66.31
9839;BME280;4958;48.150;11.506;2023-04-26T08:15:20;95649.50;;;9.99;67.52
9839;BME280;4958;48.150;11.506;2023-04-26T08:42:03;95638.66;;;11.31;59.22
9839;BME280;4958;48.150;11.506;2023-04-26T08:58:37;95639.78;;;11.43;59.17
9839;BME280;4958;48.150;11.506;2023-04-26T09:01:59;95631.69;;;11.47;59.32
9839;BME280;4958;48.150;11.506;2023-04-26T09:08:31;95651.78;;;11.36;58.58
9839;BME280;4958;48.150;11.506;2023-04-26T09:11:33;95642.72;;;11.40;58.26
9839;BME280;4958;48.150;11.506;2023-04-26T09:14:50;95640.81;;;11.64;57.81
9839;BME280;4958;48.150;11.506;2023-04-26T09:18:45;95641.09;;;12.26;55.36
9839;BME280;4958;48.150;11.506;2023-04-26T09:49:14;95623.66;;;11.56;54.03
9839;BME280;4958;48.150;11.506;2023-04-26T09:52:27;95630.94;;;11.67;54.56
9839;BME280;4958;48.150;11.506;2023-04-26T09:56:05;95638.59;;;11.61;53.29
9839;BME280;4958;48.150;11.506;2023-04-26T10:02:52;95645.38;;;11.47;52.82
9839;BME280;4958;48.150;11.506;2023-04-26T10:16:18;95623.69;;;11.92;51.82
9839;BME280;4958;48.150;11.506;2023-04-26T10:22:31;95611.47;;;13.54;49.46
9839;BME280;4958;48.150;11.506;2023-04-26T10:25:16;95609.44;;;14.03;49.35
9839;BME280;4958;48.150;11.506;2023-04-26T16:45:22;95470.81;;;13.81;46.46
9839;BME280;4958;48.150;11.506;2023-04-26T16:47:51;95474.63;;;13.85;46.61
9839;BME280;4958;48.150;11.506;2023-04-26T16:51:29;95473.22;;;13.82;45.95
9839;BME280;4958;48.150;11.506;2023-04-26T16:53:46;95471.22;;;13.78;46.25
9839;BME280;4958;48.150;11.506;2023-04-26T17:00:20;95476.19;;;13.73;46.88
9839;BME280;4958;48.150;11.506;2023-04-26T17:07:02;95486.31;;;13.68;46.46
9839;BME280;4958;48.150;11.506;2023-04-26T17:12:07;95487.34;;;13.60;46.68
9839;BME280;4958;48.150;11.506;2023-04-26T17:13:17;95489.13;;;13.60;47.32
9839;BME280;4958;48.150;11.506;2023-04-26T17:19:31;95493.81;;;13.30;47.74
9839;BME280;4958;48.150;11.506;2023-04-26T17:22:37;95496.41;;;13.30;47.50
9839;BME280;4958;48.150;11.506;2023-04-26T17:35:20;95501.19;;;13.33;47.93
9839;BME280;4958;48.150;11.506;2023-04-26T17:37:55;95509.56;;;13.35;48.16
9839;BME280;4958;48.150;11.506;2023-04-26T17:40:40;95510.56;;;13.27;47.42
9839;BME280;4958;48.150;11.506;2023-04-26T17:49:25;95517.41;;;13.13;48.23
9839;BME280;4958;48.150;11.506;2023-04-26T17:52:20;95529.53;;;13.13;48.49
9839;BME280;4958;48.150;11.506;2023-04-26T17:55:19;95527.16;;;13.11;48.15
9839;BME280;4958;48.150;11.506;2023-04-26T17:58:26;95528.13;;;13.10;48.21
9839;BME280;4958;48.150;11.506;2023-04-26T18:04:25;95527.47;;;12.95;48.65
9839;BME280;4958;48.150;11.506;2023-04-26T18:07:13;95532.03;;;12.87;48.40
9839;BME280;4958;48.150;11.506;2023-04-26T18:10:41;95533.78;;;12.79;48.78
9839;BME280;4958;48.150;11.506;2023-04-26T18:13:29;95533.53;;;12.74;48.41
9839;BME280;4958;48.150;11.506;2023-04-26T18:16:17;95537.34;;;12.78;48.54
9839;BME280;4958;48.150;11.506;2023-04-26T18:26:23;95548.03;;;12.69;48.69
9839;BME280;4958;48.150;11.506;2023-04-26T18:30:05;95551.59;;;12.68;49.61
9839;BME280;4958;48.150;11.506;2023-04-26T18:33:46;95561.75;;;12.69;50.71
9839;BME280;4958;48.150;11.506;2023-04-26T18:36:11;95563.75;;;12.74;49.25
9839;BME280;4958;48.150;11.506;2023-04-26T18:39:01;95555.56;;;12.64;48.83
9839;BME280;4958;48.150;11.506;2023-04-26T18:42:31;95570.38;;;12.55;49.36
9839;BME280;4958;48.150;11.506;2023-04-26T18:45:24;95564.22;;;12.50;49.80
9839;BME280;4958;48.150;11.506;2023-04-26T18:48:21;95564.41;;;12.48;49.63
9839;BME280;4958;48.150;11.506;2023-04-26T18:51:09;95567.53;;;12.43;49.93
9839;BME280;4958;48.150;11.506;2023-04-26T18:53:53;95572.88;;;12.42;49.77
9839;BME280;4958;48.150;11.506;2023-04-26T18:56:39;95570.06;;;12.37;50.09
9839;BME280;4958;48.150;11.506;2023-04-26T19:12:05;95585.03;;;11.99;51.61
9839;BME280;4958;48.150;11.506;2023-04-26T19:25:20;95596.97;;;12.00;51.65
9839;BME280;4958;48.150;11.506;2023-04-26T19:28:22;95591.25;;;12.04;51.73
9839;BME280;4958;48.150;11.506;2023-04-26T19:31:31;95596.97;;;12.00;52.52
9839;BME280;4958;48.150;11.506;2023-04-26T19:40:28;95588.88;;;11.67;53.35
9839;BME280;4958;48.150;11.506;2023-04-26T19:43:13;95598.75;;;11.63;52.62
9839;BME280;4958;48.150;11.506;2023-04-26T19:49:25;95615.66;;;11.66;52.79
9839;BME280;4958;48.150;11.506;2023-04-26T19:54:17;95609.88;;;11.64;53.46
9839;BME280;4958;48.150;11.506;2023-04-26T19:59:20;95604.72;;;11.64;54.22
9839;BME280;4958;48.150;11.506;2023-04-26T20:02:09;95612.53;;;11.56;54.26
9839;BME280;4958;48.150;11.506;2023-04-26T20:05:00;95614.53;;;11.54;53.47
9839;BME280;4958;48.150;11.506;2023-04-26T20:08:10;95610.94;;;11.55;52.78
9839;BME280;4958;48.150;11.506;2023-04-26T20:10:53;95610.34;;;11.53;53.00
9839;BME280;4958;48.150;11.506;2023-04-26T20:13:39;95604.00;;;11.55;52.67
9839;BME280;4958;48.150;11.506;2023-04-26T20:16:28;95610.44;;;11.45;53.52
9839;BME280;4958;48.150;11.506;2023-04-26T20:20:26;95608.41;;;11.40;54.03
9839;BME280;4958;48.150;11.506;2023-04-26T20:22:24;95611.16;;;11.38;55.32
9839;BME280;4958;48.150;11.506;2023-04-26T20:25:03;95606.75;;;11.32;54.81
9839;BME280;4958;48.150;11.506;2023-04-26T20:28:15;95613.94;;;11.22;54.86
9839;BME280;4958;48.150;11.506;2023-04-26T20:31:09;95617.94;;;11.25;54.46
9839;BME280;4958;48.150;11.506;2023-04-26T20:34:00;95611.72;;;11.34;54.88
9839;BME280;4958;48.150;11.506;2023-04-26T20:36:33;95615.50;;;11.38;54.95
9839;BME280;4958;48.150;11.506;2023-04-26T20:38:59;95610.81;;;11.41;55.33
9839;BME280;4958;48.150;11.506;2023-04-26T20:41:32;95622.19;;;11.47;54.75
9839;BME280;4958;48.150;11.506;2023-04-26T20:44:07;95628.94;;;11.48;56.08
9839;BME280;4958;48.150;11.506;2023-04-26T20:47:06;95623.25;;;11.53;54.69
9839;BME280;4958;48.150;11.506;2023-04-26T20:50:02;95625.88;;;11.59;54.56
9839;BME280;4958;48.150;11.506;2023-04-26T20:52:50;95618.75;;;11.61;54.47
9839;BME280;4958;48.150;11.506;2023-04-26T20:55:31;95619.22;;;11.65;54.17
9839;BME280;4958;48.150;11.506;2023-04-26T20:58:21;95624.91;;;11.60;53.59
9839;BME280;4958;48.150;11.506;2023-04-26T21:01:04;95629.63;;;11.57;54.28
9839;BME280;4958;48.150;11.506;2023-04-26T21:03:43;95628.22;;;11.54;54.75
9839;BME280;4958;48.150;11.506;2023-04-26T21:06:35;95628.13;;;11.48;55.66
9839;BME280;4958;48.150;11.506;2023-04-26T21:09:30;95625.56;;;11.48;56.33
9839;BME280;4958;48.150;11.506;2023-04-26T21:12:28;95626.81;;;11.52;57.01
9839;BME280;4958;48.150;11.506;2023-04-26T21:15:19;95622.84;;;11.56;57.13
9839;BME280;4958;48.150;11.506;2023-04-26T21:17:55;95616.91;;;11.55;56.74
9839;BME280;4958;48.150;11.506;2023-04-26T21:20:24;95618.88;;;11.53;57.19
9839;BME280;4958;48.150;11.506;2023-04-26T21:23:17;95623.16;;;11.46;56.36
9839;BME280;4958;48.150;11.506;2023-04-26T21:26:06;95630.44;;;11.42;56.66
9839;BME280;4958;48.150;11.506;2023-04-26T21:28:57;95619.34;;;11.42;55.79
9839;BME280;4958;48.150;11.506;2023-04-26T21:31:45;95623.34;;;11.45;54.86
9839;BME280;4958;48.150;11.506;2023-04-26T21:34:34;95623.34;;;11.45;54.87
9839;BME280;4958;48.150;11.506;2023-04-26T21:37:13;95623.16;;;11.46;55.61
9839;BME280;4958;48.150;11.506;2023-04-26T21:40:04;95616.22;;;11.47;56.01
9839;BME280;4958;48.150;11.506;2023-04-26T21:42:49;95623.16;;;11.46;56.20
9839;BME280;4958;48.150;11.506;2023-04-26T21:45:38;95629.03;;;11.40;53.81
9839;BME280;4958;48.150;11.506;2023-04-26T21:48:23;95631.44;;;11.27;52.80
9839;BME280;4958;48.150;11.506;2023-04-26T21:51:13;95633.78;;;11.07;53.26
9839;BME280;4958;48.150;11.506;2023-04-26T21:54:11;95641.22;;;11.02;53.81
9839;BME280;4958;48.150;11.506;2023-04-26T21:56:52;95640.53;;;11.08;54.27
9839;BME280;4958;48.150;11.506;2023-04-26T21:59:44;95640.88;;;11.05;54.02
9839;BME280;4958;48.150;11.506;2023-04-26T22:02:15;95638.75;;;11.08;53.92
9839;BME280;4958;48.150;11.506;2023-04-26T22:08:04;95638.03;;;11.15;53.72
9839;BME280;4958;48.150;11.506;2023-04-26T22:10:43;95638.47;;;11.18;53.72
9839;BME280;4958;48.150;11.506;2023-04-26T22:13:25;95630.22;;;11.23;53.81
9839;BME280;4958;48.150;11.506;2023-04-26T22:16:23;95640.06;;;11.19;54.30
9839;BME280;4958;48.150;11.506;2023-04-26T22:19:16;95635.00;;;11.26;54.39
9839;BME280;4958;48.150;11.506;2023-04-26T22:21:56;95638.38;;;11.26;54.52
9839;BME280;4958;48.150;11.506;2023-04-26T22:24:37;95638.31;;;11.34;54.91
9839;BME280;4958;48.150;11.506;2023-04-26T22:27:15;95624.16;;;11.30;55.35
9839;BME280;4958;48.150;11.506;2023-04-26T22:33:29;95637.41;;;11.27;56.58
9839;BME280;4958;48.150;11.506;2023-04-26T22:36:11;95634.56;;;11.22;56.91
9839;BME280;4958;48.150;11.506;2023-04-26T22:42:20;95638.47;;;11.18;55.61
9839;BME280;4958;48.150;11.506;2023-04-26T22:45:14;95642.03;;;11.17;55.09
9839;BME280;4958;48.150;11.506;2023-04-26T22:48:11;95636.69;;;11.19;54.68
9839;BME280;4958;48.150;11.506;2023-04-26T22:50:53;95641.06;;;11.03;54.34
9839;BME280;4958;48.150;11.506;2023-04-26T22:53:30;95647.00;;;11.04;54.47
9839;BME280;4958;48.150;11.506;2023-04-26T22:59:15;95648.72;;;11.12;55.25
9839;BME280;4958;48.150;11.506;2023-04-26T23:02:06;95643.72;;;11.10;54.74
9839;BME280;4958;48.150;11.506;2023-04-26T23:11:20;95650.94;;;11.15;55.93
9839;BME280;4958;48.150;11.506;2023-04-26T23:14:11;95642.03;;;11.17;55.98
9839;BME280;4958;48.150;11.506;2023-04-26T23:17:00;95647.19;;;11.17;56.41
9839;BME280;4958;48.150;11.506;2023-04-26T23:19:52;95653.13;;;11.18;56.26
9839;BME280;4958;48.150;11.506;2023-04-26T23:22:30;95644.53;;;11.11;57.40
9839;BME280;4958;48.150;11.506;2023-04-26T23:25:20;95647.09;;;11.11;57.69
9839;BME280;4958;48.150;11.506;2023-04-26T23:28:34;95641.94;;;11.11;58.02
9839;BME280;4958;48.150;11.506;2023-04-26T23:31:46;95641.31;;;11.08;56.71
9839;BME280;4958;48.150;11.506;2023-04-26T23:34:19;95641.50;;;11.07;55.96
9839;BME280;4958;48.150;11.506;2023-04-26T23:37:31;95639.91;;;11.06;55.63
9839;BME280;4958;48.150;11.506;2023-04-26T23:40:06;95645.50;;;11.10;55.46
9839;BME280;4958;48.150;11.506;2023-04-26T23:42:55;95640.59;;;11.00;54.89
9839;BME280;4958;48.150;11.506;2023-04-26T23:45:55;95643.97;;;11.00;54.99
9839;BME280;4958;48.150;11.506;2023-04-26T23:48:54;95640.44;;;11.01;54.78
9839;BME280;4958;48.150;11.506;2023-04-26T23:51:55;95637.41;;;10.98;54.26
9839;BME280;4958;48.150;11.506;2023-04-26T23:54:42;95633.03;;;10.98;54.83
9839;BME280;4958;48.150;11.506;2023-04-26T23:57:15;95636.06;;;11.02;55.40
